sensor_id;sensor_type;location;lat;lon;timestamp;pressure;altitude;pressure_sealevel;temperature;humidity
50710;BME280;37033;49.994;21.992;2023-08-08T00:00:03;98789.05;;;13.41;88.68
50710;BME280;37033;49.994;21.992;2023-08-08T00:02:35;98790.02;;;13.41;88.53
50710;BME280;37033;49.994;21.992;2023-08-08T00:05:06;98794.41;;;13.41;88.62
50710;BME280;37033;49.994;21.992;2023-08-08T00:07:38;98792.05;;;13.40;88.61
50710;BME280;37033;49.994;21.992;2023-08-08T00:10:10;98796.38;;;13.40;88.70
50710;BME280;37033;49.994;21.992;2023-08-08T00:12:40;98798.72;;;13.40;88.73
50710;BME280;37033;49.994;21.992;2023-08-08T00:15:11;98801.84;;;13.40;88.93
50710;BME280;37033;49.994;21.992;2023-08-08T00:17:42;98805.20;;;13.40;88.94
50710;BME280;37033;49.994;21.992;2023-08-08T00:20:13;98802.75;;;13.40;88.87
50710;BME280;37033;49.994;21.992;2023-08-08T00:22:43;98809.02;;;13.40;88.97
50710;BME280;37033;49.994;21.992;2023-08-08T00:25:14;98808.48;;;13.40;89.00
50710;BME280;37033;49.994;21.992;2023-08-08T00:27:45;98810.93;;;13.41;89.20
50710;BME280;37033;49.994;21.992;2023-08-08T00:30:16;98815.27;;;13.41;89.29
50710;BME280;37033;49.994;21.992;2023-08-08T00:32:47;98814.44;;;13.42;89.27
50710;BME280;37033;49.994;21.992;2023-08-08T00:35:18;98810.57;;;13.42;89.15
50710;BME280;37033;49.994;21.992;2023-08-08T00:37:48;98812.15;;;13.42;89.16
50710;BME280;37033;49.994;21.992;2023-08-08T00:40:19;98813.01;;;13.43;89.29
50710;BME280;37033;49.994;21.992;2023-08-08T00:42:50;98811.43;;;13.45;89.41
50710;BME280;37033;49.994;21.992;2023-08-08T00:45:20;98814.27;;;13.46;89.47
50710;BME280;37033;49.994;21.992;2023-08-08T00:47:51;98819.45;;;13.46;89.24
50710;BME280;37033;49.994;21.992;2023-08-08T00:50:22;98820.48;;;13.47;89.21
50710;BME280;37033;49.994;21.992;2023-08-08T00:52:53;98820.83;;;13.48;89.24
50710;BME280;37033;49.994;21.992;2023-08-08T00:55:24;98823.22;;;13.49;89.40
50710;BME280;37033;49.994;21.992;2023-08-08T00:57:55;98828.24;;;13.50;89.35
50710;BME280;37033;49.994;21.992;2023-08-08T01:00:26;98830.09;;;13.52;89.51
50710;BME280;37033;49.994;21.992;2023-08-08T01:02:57;98836.88;;;13.54;89.45
50710;BME280;37033;49.994;21.992;2023-08-08T01:05:32;98839.66;;;13.56;89.44
50710;BME280;37033;49.994;21.992;2023-08-08T01:08:06;98844.24;;;13.56;89.34
50710;BME280;37033;49.994;21.992;2023-08-08T01:10:40;98848.77;;;13.58;89.45
50710;BME280;37033;49.994;21.992;2023-08-08T01:13:14;98851.40;;;13.57;89.29
50710;BME280;37033;49.994;21.992;2023-08-08T01:15:49;98859.10;;;13.58;89.23
50710;BME280;37033;49.994;21.992;2023-08-08T01:18:20;98868.00;;;13.57;89.38
50710;BME280;37033;49.994;21.992;2023-08-08T01:20:53;98869.10;;;13.56;89.29
50710;BME280;37033;49.994;21.992;2023-08-08T01:23:30;98872.44;;;13.55;89.31
50710;BME280;37033;49.994;21.992;2023-08-08T01:26:03;98871.28;;;13.56;89.45
50710;BME280;37033;49.994;21.992;2023-08-08T01:28:37;98874.39;;;13.56;89.50
50710;BME280;37033;49.994;21.992;2023-08-08T01:31:07;98874.45;;;13.55;89.42
50710;BME280;37033;49.994;21.992;2023-08-08T01:33:38;98875.70;;;13.55;89.53
50710;BME280;37033;49.994;21.992;2023-08-08T01:36:13;98877.95;;;13.55;89.56
50710;BME280;37033;49.994;21.992;2023-08-08T01:38:48;98884.48;;;13.55;89.61
50710;BME280;37033;49.994;21.992;2023-08-08T01:41:21;98883.41;;;13.55;89.67
50710;BME280;37033;49.994;21.992;2023-08-08T01:43:53;98887.95;;;13.55;89.60
50710;BME280;37033;49.994;21.992;2023-08-08T01:46:25;98891.02;;;13.55;89.80
50710;BME280;37033;49.994;21.992;2023-08-08T01:48:58;98895.04;;;13.55;89.84
50710;BME280;37033;49.994;21.992;2023-08-08T01:51:29;98895.15;;;13.56;89.67
50710;BME280;37033;49.994;21.992;2023-08-08T01:54:00;98896.63;;;13.56;89.83
50710;BME280;37033;49.994;21.992;2023-08-08T01:56:30;98899.14;;;13.56;89.85
50710;BME280;37033;49.994;21.992;2023-08-08T01:59:01;98902.57;;;13.56;89.89
50710;BME280;37033;49.994;21.992;2023-08-08T02:01:32;98903.51;;;13.56;89.85
50710;BME280;37033;49.994;21.992;2023-08-08T02:04:03;98901.87;;;13.56;90.03
50710;BME280;37033;49.994;21.992;2023-08-08T02:06:33;98903.40;;;13.55;89.93
50710;BME280;37033;49.994;21.992;2023-08-08T02:09:04;98908.36;;;13.56;89.93
50710;BME280;37033;49.994;21.992;2023-08-08T02:11:35;98914.53;;;13.56;89.90
50710;BME280;37033;49.994;21.992;2023-08-08T02:14:06;98912.41;;;13.57;90.11
50710;BME280;37033;49.994;21.992;2023-08-08T02:16:36;98914.97;;;13.57;90.06
50710;BME280;37033;49.994;21.992;2023-08-08T02:19:08;98918.91;;;13.57;90.06
50710;BME280;37033;49.994;21.992;2023-08-08T02:21:39;98921.30;;;13.57;90.06
50710;BME280;37033;49.994;21.992;2023-08-08T02:24:10;98924.80;;;13.58;90.15
50710;BME280;37033;49.994;21.992;2023-08-08T02:26:40;98928.14;;;13.58;90.17
50710;BME280;37033;49.994;21.992;2023-08-08T02:29:11;98931.79;;;13.58;90.08
50710;BME280;37033;49.994;21.992;2023-08-08T02:31:43;98933.38;;;13.60;89.92
50710;BME280;37033;49.994;21.992;2023-08-08T02:34:13;98937.58;;;13.61;90.07
50710;BME280;37033;49.994;21.992;2023-08-08T02:36:44;98935.67;;;13.62;90.06
50710;BME280;37033;49.994;21.992;2023-08-08T02:39:15;98940.20;;;13.62;89.95
50710;BME280;37033;49.994;21.992;2023-08-08T02:41:46;98943.42;;;13.64;90.06
50710;BME280;37033;49.994;21.992;2023-08-08T02:44:16;98945.77;;;13.66;89.88
50710;BME280;37033;49.994;21.992;2023-08-08T02:46:49;98945.33;;;13.67;89.88
50710;BME280;37033;49.994;21.992;2023-08-08T02:49:19;98947.31;;;13.69;89.92
50710;BME280;37033;49.994;21.992;2023-08-08T02:51:50;98943.98;;;13.69;89.82
50710;BME280;37033;49.994;21.992;2023-08-08T02:54:21;98946.16;;;13.69;89.67
50710;BME280;37033;49.994;21.992;2023-08-08T02:56:52;98950.15;;;13.69;89.56
50710;BME280;37033;49.994;21.992;2023-08-08T02:59:22;98955.45;;;13.69;89.40
50710;BME280;37033;49.994;21.992;2023-08-08T03:01:53;98961.95;;;13.69;89.27
50710;BME280;37033;49.994;21.992;2023-08-08T03:04:24;98964.13;;;13.70;89.12
50710;BME280;37033;49.994;21.992;2023-08-08T03:06:54;98960.64;;;13.70;89.24
50710;BME280;37033;49.994;21.992;2023-08-08T03:09:25;98964.90;;;13.71;89.08
50710;BME280;37033;49.994;21.992;2023-08-08T03:11:56;98967.24;;;13.72;89.07
50710;BME280;37033;49.994;21.992;2023-08-08T03:14:27;98969.38;;;13.73;88.86
50710;BME280;37033;49.994;21.992;2023-08-08T03:16:57;98970.23;;;13.73;88.78
50710;BME280;37033;49.994;21.992;2023-08-08T03:19:28;98973.46;;;13.73;88.64
50710;BME280;37033;49.994;21.992;2023-08-08T03:21:58;98973.64;;;13.73;88.49
50710;BME280;37033;49.994;21.992;2023-08-08T03:24:29;98978.13;;;13.75;88.56
50710;BME280;37033;49.994;21.992;2023-08-08T03:27:00;98984.96;;;13.75;88.45
50710;BME280;37033;49.994;21.992;2023-08-08T03:29:30;98988.73;;;13.75;88.39
50710;BME280;37033;49.994;21.992;2023-08-08T03:32:01;98993.48;;;13.76;88.26
50710;BME280;37033;49.994;21.992;2023-08-08T03:34:33;98996.75;;;13.76;88.09
50710;BME280;37033;49.994;21.992;2023-08-08T03:37:05;99000.58;;;13.77;88.06
50710;BME280;37033;49.994;21.992;2023-08-08T03:39:35;99002.98;;;13.78;87.90
50710;BME280;37033;49.994;21.992;2023-08-08T03:42:08;99007.64;;;13.79;87.76
50710;BME280;37033;49.994;21.992;2023-08-08T03:44:38;99005.16;;;13.78;87.74
50710;BME280;37033;49.994;21.992;2023-08-08T03:47:10;99013.20;;;13.79;87.47
50710;BME280;37033;49.994;21.992;2023-08-08T03:49:41;99014.52;;;13.80;87.31
50710;BME280;37033;49.994;21.992;2023-08-08T03:52:12;99020.59;;;13.81;87.22
50710;BME280;37033;49.994;21.992;2023-08-08T03:54:44;99020.46;;;13.80;87.08
50710;BME280;37033;49.994;21.992;2023-08-08T03:57:15;99028.61;;;13.81;87.16
50710;BME280;37033;49.994;21.992;2023-08-08T03:59:46;99034.29;;;13.82;86.91
50710;BME280;37033;49.994;21.992;2023-08-08T04:02:16;99040.25;;;13.83;86.77
50710;BME280;37033;49.994;21.992;2023-08-08T04:04:47;99044.96;;;13.83;86.48
50710;BME280;37033;49.994;21.992;2023-08-08T04:07:18;99044.08;;;13.83;86.39
50710;BME280;37033;49.994;21.992;2023-08-08T04:09:48;99050.20;;;13.84;86.49
50710;BME280;37033;49.994;21.992;2023-08-08T04:12:19;99054.52;;;13.85;86.29
50710;BME280;37033;49.994;21.992;2023-08-08T04:14:50;99057.42;;;13.86;86.13
50710;BME280;37033;49.994;21.992;2023-08-08T04:17:20;99065.95;;;13.86;86.08
50710;BME280;37033;49.994;21.992;2023-08-08T04:19:51;99070.92;;;13.87;85.83
50710;BME280;37033;49.994;21.992;2023-08-08T04:22:22;99076.05;;;13.88;86.01
50710;BME280;37033;49.994;21.992;2023-08-08T04:24:52;99084.19;;;13.90;85.80
50710;BME280;37033;49.994;21.992;2023-08-08T04:27:23;99085.17;;;13.90;85.73
50710;BME280;37033;49.994;21.992;2023-08-08T04:29:54;99090.70;;;13.91;85.73
50710;BME280;37033;49.994;21.992;2023-08-08T04:32:24;99094.79;;;13.92;85.64
50710;BME280;37033;49.994;21.992;2023-08-08T04:34:56;99095.73;;;13.94;85.38
50710;BME280;37033;49.994;21.992;2023-08-08T04:37:26;99096.45;;;13.96;85.26
50710;BME280;37033;49.994;21.992;2023-08-08T04:39:57;99096.98;;;13.98;85.40
50710;BME280;37033;49.994;21.992;2023-08-08T04:42:28;99107.17;;;14.02;85.19
50710;BME280;37033;49.994;21.992;2023-08-08T04:44:58;99112.04;;;14.04;85.02
50710;BME280;37033;49.994;21.992;2023-08-08T04:47:29;99112.91;;;14.07;85.16
50710;BME280;37033;49.994;21.992;2023-08-08T04:50:00;99112.64;;;14.10;85.05
50710;BME280;37033;49.994;21.992;2023-08-08T04:52:31;99119.91;;;14.12;84.74
50710;BME280;37033;49.994;21.992;2023-08-08T04:55:02;99118.73;;;14.15;84.71
50710;BME280;37033;49.994;21.992;2023-08-08T04:57:33;99123.21;;;14.17;84.64
50710;BME280;37033;49.994;21.992;2023-08-08T05:00:05;99125.50;;;14.19;84.35
50710;BME280;37033;49.994;21.992;2023-08-08T05:02:37;99129.39;;;14.21;84.52
50710;BME280;37033;49.994;21.992;2023-08-08T05:05:10;99130.54;;;14.25;84.45
50710;BME280;37033;49.994;21.992;2023-08-08T05:07:41;99137.21;;;14.29;84.40
50710;BME280;37033;49.994;21.992;2023-08-08T05:10:12;99140.77;;;14.33;84.34
50710;BME280;37033;49.994;21.992;2023-08-08T05:12:43;99144.39;;;14.37;84.15
50710;BME280;37033;49.994;21.992;2023-08-08T05:15:13;99151.73;;;14.40;84.03
50710;BME280;37033;49.994;21.992;2023-08-08T05:17:44;99150.29;;;14.43;83.79
50710;BME280;37033;49.994;21.992;2023-08-08T05:20:15;99154.23;;;14.47;83.70
50710;BME280;37033;49.994;21.992;2023-08-08T05:22:46;99159.85;;;14.57;83.77
50710;BME280;37033;49.994;21.992;2023-08-08T05:25:17;99161.27;;;14.68;83.46
50710;BME280;37033;49.994;21.992;2023-08-08T05:27:48;99156.45;;;14.77;82.71
50710;BME280;37033;49.994;21.992;2023-08-08T05:30:19;99158.20;;;14.84;81.85
50710;BME280;37033;49.994;21.992;2023-08-08T05:32:50;99157.80;;;14.91;81.82
50710;BME280;37033;49.994;21.992;2023-08-08T05:35:20;99161.73;;;15.00;80.64
50710;BME280;37033;49.994;21.992;2023-08-08T05:37:51;99161.55;;;15.08;80.31
50710;BME280;37033;49.994;21.992;2023-08-08T05:40:22;99163.41;;;15.16;80.16
50710;BME280;37033;49.994;21.992;2023-08-08T05:42:53;99164.58;;;15.26;79.41
50710;BME280;37033;49.994;21.992;2023-08-08T05:45:24;99162.31;;;15.36;78.72
50710;BME280;37033;49.994;21.992;2023-08-08T05:47:55;99165.89;;;15.46;78.79
50710;BME280;37033;49.994;21.992;2023-08-08T05:50:26;99160.75;;;15.57;78.77
50710;BME280;37033;49.994;21.992;2023-08-08T05:52:57;99161.20;;;15.69;77.91
50710;BME280;37033;49.994;21.992;2023-08-08T05:55:28;99160.49;;;15.78;77.86
50710;BME280;37033;49.994;21.992;2023-08-08T05:57:58;99160.21;;;15.87;77.32
50710;BME280;37033;49.994;21.992;2023-08-08T06:00:29;99163.08;;;15.96;76.30
50710;BME280;37033;49.994;21.992;2023-08-08T06:03:01;99160.27;;;16.00;75.54
50710;BME280;37033;49.994;21.992;2023-08-08T06:05:32;99160.27;;;16.08;75.66
50710;BME280;37033;49.994;21.992;2023-08-08T06:08:03;99155.85;;;16.21;74.52
50710;BME280;37033;49.994;21.992;2023-08-08T06:10:37;99152.06;;;16.30;73.24
50710;BME280;37033;49.994;21.992;2023-08-08T06:13:07;99155.20;;;16.35;72.13
50710;BME280;37033;49.994;21.992;2023-08-08T06:15:38;99160.38;;;16.40;71.45
50710;BME280;37033;49.994;21.992;2023-08-08T06:18:09;99160.05;;;16.42;71.40
50710;BME280;37033;49.994;21.992;2023-08-08T06:20:39;99159.27;;;16.43;70.70
50710;BME280;37033;49.994;21.992;2023-08-08T06:23:10;99162.97;;;16.46;70.58
50710;BME280;37033;49.994;21.992;2023-08-08T06:25:41;99164.77;;;16.49;69.18
50710;BME280;37033;49.994;21.992;2023-08-08T06:28:11;99167.35;;;16.49;68.60
50710;BME280;37033;49.994;21.992;2023-08-08T06:30:42;99166.29;;;16.50;68.27
50710;BME280;37033;49.994;21.992;2023-08-08T06:33:12;99164.02;;;16.52;68.68
50710;BME280;37033;49.994;21.992;2023-08-08T06:35:44;99168.55;;;16.55;68.55
50710;BME280;37033;49.994;21.992;2023-08-08T06:38:14;99168.48;;;16.56;68.26
50710;BME280;37033;49.994;21.992;2023-08-08T06:40:45;99169.11;;;16.62;68.21
50710;BME280;37033;49.994;21.992;2023-08-08T06:43:16;99168.24;;;16.68;68.96
50710;BME280;37033;49.994;21.992;2023-08-08T06:45:47;99166.35;;;16.79;69.26
50710;BME280;37033;49.994;21.992;2023-08-08T06:48:17;99162.49;;;16.89;68.73
50710;BME280;37033;49.994;21.992;2023-08-08T06:50:48;99161.05;;;17.01;68.51
50710;BME280;37033;49.994;21.992;2023-08-08T06:53:19;99163.37;;;17.05;68.06
50710;BME280;37033;49.994;21.992;2023-08-08T06:55:50;99164.34;;;17.06;67.53
50710;BME280;37033;49.994;21.992;2023-08-08T06:58:23;99162.14;;;17.07;66.38
50710;BME280;37033;49.994;21.992;2023-08-08T07:00:54;99156.95;;;17.08;66.15
50710;BME280;37033;49.994;21.992;2023-08-08T07:03:28;99164.20;;;17.16;66.71
50710;BME280;37033;49.994;21.992;2023-08-08T07:05:58;99161.80;;;17.25;65.89
50710;BME280;37033;49.994;21.992;2023-08-08T07:08:30;99166.16;;;17.28;65.00
50710;BME280;37033;49.994;21.992;2023-08-08T07:11:01;99166.33;;;17.28;64.85
50710;BME280;37033;49.994;21.992;2023-08-08T07:13:32;99162.81;;;17.33;65.11
50710;BME280;37033;49.994;21.992;2023-08-08T07:16:03;99159.80;;;17.42;64.56
50710;BME280;37033;49.994;21.992;2023-08-08T07:18:34;99163.73;;;17.53;64.40
50710;BME280;37033;49.994;21.992;2023-08-08T07:21:04;99165.46;;;17.65;63.59
50710;BME280;37033;49.994;21.992;2023-08-08T07:23:35;99170.42;;;17.73;62.93
50710;BME280;37033;49.994;21.992;2023-08-08T07:26:06;99165.08;;;17.83;62.94
50710;BME280;37033;49.994;21.992;2023-08-08T07:28:37;99170.50;;;17.91;61.88
50710;BME280;37033;49.994;21.992;2023-08-08T07:31:07;99170.84;;;17.94;63.09
50710;BME280;37033;49.994;21.992;2023-08-08T07:33:38;99175.52;;;18.03;62.28
50710;BME280;37033;49.994;21.992;2023-08-08T07:36:09;99177.23;;;18.05;61.78
50710;BME280;37033;49.994;21.992;2023-08-08T07:38:39;99175.54;;;18.05;61.37
50710;BME280;37033;49.994;21.992;2023-08-08T07:41:10;99173.70;;;18.03;60.94
50710;BME280;37033;49.994;21.992;2023-08-08T07:43:41;99175.79;;;18.07;62.03
50710;BME280;37033;49.994;21.992;2023-08-08T07:46:12;99179.50;;;18.20;61.49
50710;BME280;37033;49.994;21.992;2023-08-08T07:48:43;99187.38;;;18.31;60.85
50710;BME280;37033;49.994;21.992;2023-08-08T07:51:14;99183.17;;;18.36;58.71
50710;BME280;37033;49.994;21.992;2023-08-08T07:53:45;99183.06;;;18.33;58.10
50710;BME280;37033;49.994;21.992;2023-08-08T07:56:15;99178.63;;;18.34;58.82
50710;BME280;37033;49.994;21.992;2023-08-08T07:58:46;99177.29;;;18.44;59.08
50710;BME280;37033;49.994;21.992;2023-08-08T08:01:17;99174.88;;;18.57;59.00
50710;BME280;37033;49.994;21.992;2023-08-08T08:03:48;99176.36;;;18.68;57.97
50710;BME280;37033;49.994;21.992;2023-08-08T08:06:20;99170.59;;;18.73;57.61
50710;BME280;37033;49.994;21.992;2023-08-08T08:08:50;99175.24;;;18.84;57.54
50710;BME280;37033;49.994;21.992;2023-08-08T08:11:21;99174.67;;;18.91;56.32
50710;BME280;37033;49.994;21.992;2023-08-08T08:13:52;99168.36;;;18.99;56.22
50710;BME280;37033;49.994;21.992;2023-08-08T08:16:23;99166.16;;;18.99;56.21
50710;BME280;37033;49.994;21.992;2023-08-08T08:18:54;99163.88;;;19.13;56.91
50710;BME280;37033;49.994;21.992;2023-08-08T08:21:24;99167.48;;;19.29;56.45
50710;BME280;37033;49.994;21.992;2023-08-08T08:23:55;99168.75;;;19.41;56.34
50710;BME280;37033;49.994;21.992;2023-08-08T08:26:26;99162.69;;;19.49;55.94
50710;BME280;37033;49.994;21.992;2023-08-08T08:28:57;99164.27;;;19.58;55.39
50710;BME280;37033;49.994;21.992;2023-08-08T08:31:28;99162.67;;;19.61;54.84
50710;BME280;37033;49.994;21.992;2023-08-08T08:33:58;99159.27;;;19.72;55.33
50710;BME280;37033;49.994;21.992;2023-08-08T08:36:29;99158.05;;;19.86;54.28
50710;BME280;37033;49.994;21.992;2023-08-08T08:39:00;99159.88;;;19.98;54.31
50710;BME280;37033;49.994;21.992;2023-08-08T08:41:32;99161.59;;;20.08;53.73
50710;BME280;37033;49.994;21.992;2023-08-08T08:44:06;99161.95;;;20.15;53.54
50710;BME280;37033;49.994;21.992;2023-08-08T08:46:38;99165.15;;;20.19;52.88
50710;BME280;37033;49.994;21.992;2023-08-08T08:49:10;99161.38;;;20.23;52.97
50710;BME280;37033;49.994;21.992;2023-08-08T08:51:42;99158.96;;;20.29;52.50
50710;BME280;37033;49.994;21.992;2023-08-08T08:54:13;99155.89;;;20.36;53.00
50710;BME280;37033;49.994;21.992;2023-08-08T08:56:44;99154.27;;;20.48;53.27
50710;BME280;37033;49.994;21.992;2023-08-08T08:59:15;99156.52;;;20.61;52.83
50710;BME280;37033;49.994;21.992;2023-08-08T09:01:46;99159.05;;;20.66;52.79
50710;BME280;37033;49.994;21.992;2023-08-08T09:04:19;99158.09;;;20.74;51.86
50710;BME280;37033;49.994;21.992;2023-08-08T09:06:51;99156.41;;;20.73;51.00
50710;BME280;37033;49.994;21.992;2023-08-08T09:09:22;99161.93;;;20.79;51.72
50710;BME280;37033;49.994;21.992;2023-08-08T09:11:54;99158.59;;;20.89;51.26
50710;BME280;37033;49.994;21.992;2023-08-08T09:14:26;99153.45;;;21.04;51.71
50710;BME280;37033;49.994;21.992;2023-08-08T09:16:57;99151.95;;;21.35;51.95
50710;BME280;37033;49.994;21.992;2023-08-08T09:19:28;99154.61;;;21.59;51.02
50710;BME280;37033;49.994;21.992;2023-08-08T09:21:59;99158.17;;;21.51;49.97
50710;BME280;37033;49.994;21.992;2023-08-08T09:24:29;99156.96;;;21.27;49.97
50710;BME280;37033;49.994;21.992;2023-08-08T09:27:01;99161.03;;;20.95;49.96
50710;BME280;37033;49.994;21.992;2023-08-08T09:29:32;99159.98;;;20.63;50.14
50710;BME280;37033;49.994;21.992;2023-08-08T09:32:05;99167.13;;;20.42;50.89
50710;BME280;37033;49.994;21.992;2023-08-08T09:34:36;99166.11;;;20.35;51.38
50710;BME280;37033;49.994;21.992;2023-08-08T09:37:08;99165.32;;;20.36;51.52
50710;BME280;37033;49.994;21.992;2023-08-08T09:39:40;99164.72;;;20.43;51.25
50710;BME280;37033;49.994;21.992;2023-08-08T09:42:10;99162.55;;;20.48;50.63
50710;BME280;37033;49.994;21.992;2023-08-08T09:44:44;99163.65;;;20.43;48.97
50710;BME280;37033;49.994;21.992;2023-08-08T09:47:16;99167.02;;;20.32;48.29
50710;BME280;37033;49.994;21.992;2023-08-08T09:49:46;99168.38;;;20.36;49.32
50710;BME280;37033;49.994;21.992;2023-08-08T09:52:18;99171.88;;;20.46;49.20
50710;BME280;37033;49.994;21.992;2023-08-08T09:54:50;99168.02;;;20.60;50.13
50710;BME280;37033;49.994;21.992;2023-08-08T09:57:22;99158.41;;;20.78;49.33
50710;BME280;37033;49.994;21.992;2023-08-08T09:59:53;99161.67;;;20.89;49.22
50710;BME280;37033;49.994;21.992;2023-08-08T10:02:26;99161.48;;;21.05;48.35
50710;BME280;37033;49.994;21.992;2023-08-08T10:04:59;99151.91;;;21.10;47.92
50710;BME280;37033;49.994;21.992;2023-08-08T10:07:30;99149.97;;;21.07;47.72
50710;BME280;37033;49.994;21.992;2023-08-08T10:10:01;99148.15;;;21.04;47.88
50710;BME280;37033;49.994;21.992;2023-08-08T10:12:32;99149.34;;;20.92;48.11
50710;BME280;37033;49.994;21.992;2023-08-08T10:15:06;99145.44;;;20.87;49.03
50710;BME280;37033;49.994;21.992;2023-08-08T10:17:40;99148.42;;;20.85;49.42
50710;BME280;37033;49.994;21.992;2023-08-08T10:20:12;99140.04;;;20.82;49.53
50710;BME280;37033;49.994;21.992;2023-08-08T10:22:48;99138.45;;;20.86;50.08
50710;BME280;37033;49.994;21.992;2023-08-08T10:25:24;99141.10;;;20.95;49.85
50710;BME280;37033;49.994;21.992;2023-08-08T10:28:03;99136.66;;;21.03;50.26
50710;BME280;37033;49.994;21.992;2023-08-08T10:30:45;99133.91;;;21.07;50.46
50710;BME280;37033;49.994;21.992;2023-08-08T10:33:20;99130.23;;;21.09;49.65
50710;BME280;37033;49.994;21.992;2023-08-08T10:36:03;99128.55;;;21.07;49.54
50710;BME280;37033;49.994;21.992;2023-08-08T10:38:46;99125.48;;;21.02;49.40
50710;BME280;37033;49.994;21.992;2023-08-08T10:41:19;99122.82;;;21.06;49.43
50710;BME280;37033;49.994;21.992;2023-08-08T10:43:52;99116.42;;;21.16;48.96
50710;BME280;37033;49.994;21.992;2023-08-08T10:46:29;99117.44;;;21.25;48.63
50710;BME280;37033;49.994;21.992;2023-08-08T10:49:01;99111.14;;;21.41;48.21
50710;BME280;37033;49.994;21.992;2023-08-08T10:51:40;99111.73;;;21.58;47.40
50710;BME280;37033;49.994;21.992;2023-08-08T10:54:16;99117.13;;;21.74;47.01
50710;BME280;37033;49.994;21.992;2023-08-08T10:56:52;99112.56;;;21.84;46.10
50710;BME280;37033;49.994;21.992;2023-08-08T10:59:24;99111.02;;;21.97;46.69
50710;BME280;37033;49.994;21.992;2023-08-08T11:01:55;99102.49;;;22.14;46.62
50710;BME280;37033;49.994;21.992;2023-08-08T11:04:26;99102.02;;;22.20;45.99
50710;BME280;37033;49.994;21.992;2023-08-08T11:06:59;99099.73;;;22.14;45.78
50710;BME280;37033;49.994;21.992;2023-08-08T11:09:29;99096.70;;;22.07;45.52
50710;BME280;37033;49.994;21.992;2023-08-08T11:12:00;99101.65;;;21.88;45.44
50710;BME280;37033;49.994;21.992;2023-08-08T11:14:31;99104.75;;;21.71;46.14
50710;BME280;37033;49.994;21.992;2023-08-08T11:17:02;99110.27;;;21.59;46.38
50710;BME280;37033;49.994;21.992;2023-08-08T11:19:40;99116.13;;;21.48;47.00
50710;BME280;37033;49.994;21.992;2023-08-08T11:22:14;99127.54;;;21.36;46.36
50710;BME280;37033;49.994;21.992;2023-08-08T11:24:45;99135.48;;;21.08;46.92
50710;BME280;37033;49.994;21.992;2023-08-08T11:27:15;99124.20;;;20.79;48.22
50710;BME280;37033;49.994;21.992;2023-08-08T11:29:52;99114.15;;;20.60;49.01
50710;BME280;37033;49.994;21.992;2023-08-08T11:32:23;99114.30;;;20.51;48.95
50710;BME280;37033;49.994;21.992;2023-08-08T11:34:54;99119.20;;;20.62;49.38
50710;BME280;37033;49.994;21.992;2023-08-08T11:37:25;99120.98;;;20.84;48.79
50710;BME280;37033;49.994;21.992;2023-08-08T11:39:56;99116.95;;;21.11;48.81
50710;BME280;37033;49.994;21.992;2023-08-08T11:42:27;99119.20;;;21.40;48.33
50710;BME280;37033;49.994;21.992;2023-08-08T11:44:58;99115.33;;;21.66;47.68
50710;BME280;37033;49.994;21.992;2023-08-08T11:47:29;99115.95;;;21.87;47.41
50710;BME280;37033;49.994;21.992;2023-08-08T11:50:07;99116.66;;;22.16;47.17
50710;BME280;37033;49.994;21.992;2023-08-08T11:52:41;99113.97;;;22.47;47.09
50710;BME280;37033;49.994;21.992;2023-08-08T11:55:12;99109.08;;;22.66;46.66
50710;BME280;37033;49.994;21.992;2023-08-08T11:57:43;99109.64;;;22.79;46.42
50710;BME280;37033;49.994;21.992;2023-08-08T12:00:16;99111.30;;;22.84;46.74
50710;BME280;37033;49.994;21.992;2023-08-08T12:02:47;99111.58;;;22.87;45.16
50710;BME280;37033;49.994;21.992;2023-08-08T12:05:22;99104.76;;;22.78;44.95
50710;BME280;37033;49.994;21.992;2023-08-08T12:07:53;99100.98;;;22.86;45.38
50710;BME280;37033;49.994;21.992;2023-08-08T12:10:25;99102.44;;;22.93;44.26
50710;BME280;37033;49.994;21.992;2023-08-08T12:12:57;99098.55;;;23.02;44.81
50710;BME280;37033;49.994;21.992;2023-08-08T12:15:31;99097.89;;;23.30;44.74
50710;BME280;37033;49.994;21.992;2023-08-08T12:18:02;99098.70;;;23.52;44.09
50710;BME280;37033;49.994;21.992;2023-08-08T12:20:33;99105.08;;;23.59;43.78
50710;BME280;37033;49.994;21.992;2023-08-08T12:23:04;99101.55;;;23.66;42.87
50710;BME280;37033;49.994;21.992;2023-08-08T12:25:35;99098.95;;;23.73;41.77
50710;BME280;37033;49.994;21.992;2023-08-08T12:28:07;99092.72;;;23.69;41.88
50710;BME280;37033;49.994;21.992;2023-08-08T12:30:38;99091.16;;;23.80;41.09
50710;BME280;37033;49.994;21.992;2023-08-08T12:33:08;99092.64;;;23.85;41.50
50710;BME280;37033;49.994;21.992;2023-08-08T12:35:39;99087.92;;;23.92;41.54
50710;BME280;37033;49.994;21.992;2023-08-08T12:38:10;99083.90;;;24.00;41.09
50710;BME280;37033;49.994;21.992;2023-08-08T12:40:41;99084.21;;;24.06;40.78
50710;BME280;37033;49.994;21.992;2023-08-08T12:43:12;99087.41;;;24.14;40.69
50710;BME280;37033;49.994;21.992;2023-08-08T12:45:47;99087.45;;;24.13;40.41
50710;BME280;37033;49.994;21.992;2023-08-08T12:48:18;99086.55;;;24.21;40.20
50710;BME280;37033;49.994;21.992;2023-08-08T12:50:48;99085.27;;;24.19;39.56
50710;BME280;37033;49.994;21.992;2023-08-08T12:53:19;99092.14;;;24.16;39.04
50710;BME280;37033;49.994;21.992;2023-08-08T12:55:50;99090.87;;;24.07;38.56
50710;BME280;37033;49.994;21.992;2023-08-08T12:58:20;99088.95;;;23.97;38.49
50710;BME280;37033;49.994;21.992;2023-08-08T13:00:51;99096.83;;;23.89;38.43
50710;BME280;37033;49.994;21.992;2023-08-08T13:03:22;99098.82;;;23.69;38.49
50710;BME280;37033;49.994;21.992;2023-08-08T13:05:53;99096.62;;;23.56;38.69
50710;BME280;37033;49.994;21.992;2023-08-08T13:08:24;99104.39;;;23.42;38.73
50710;BME280;37033;49.994;21.992;2023-08-08T13:10:54;99103.86;;;23.21;38.53